^^
Station Historical Data
Daily Summary for June 20, 2017 Units:  Both    English   Metric
« Previous Day
Next Day »
Daily Weekly Monthly Yearly Custom
  High: Low: Average:
Temperature: 82.9 °F /  28.3 °C 55.2 °F /  12.9 °C 67 °F /  19.4 °C
Dew Point: 54.9 °F /  12.7 °C 48.7 °F /  9.3 °C 51.8 °F /  11 °C
Humidity: 86 % 34 % 61 %
Wind Speed: 7.0 mph /  11.3 km/h - 2 mph /  3.2 km/h
Wind Gust: 14.0 mph /  22.5 km/h - -
Wind:- - ENE
Pressure: 30.26 in /  1024.6 hPa 30.08 in /  1018.5 hPa -
Precipitation: 0.00 in /  0 mm    
Historical Graphs
 
 


Weather Camera

Weather Camera




Garrymore Current Conditions

Find more about Weather in Mountmellick, IE
Click for weather forecast
Tabular Data for June 20, 2017
Time Temperature Dew Point Pressure Wind Wind Speed Wind Gust Humidity Rainfall Rate (Hourly) solar Conditions
00:00 61.2 °F /  16.2 °C 54.9 °F /  12.7 °C 30.25 in /  1024.3 hPa ENE 1.0 mph /  1.6 km/h 8.0 mph /  12.9 km/h 80 % 0.00 in /  0 mm 0.0 W/m2 BKN
00:10 59.5 °F /  15.3 °C 53.7 °F /  12.1 °C 30.26 in /  1024.6 hPa ENE 1.0 mph /  1.6 km/h 8.0 mph /  12.9 km/h 81 % 0.00 in /  0 mm 0.0 W/m2 BKN
00:15 59.5 °F /  15.3 °C 53.7 °F /  12.1 °C 30.26 in /  1024.6 hPa ESE 2.0 mph /  3.2 km/h 6.0 mph /  9.7 km/h 81 % 0.00 in /  0 mm 0.0 W/m2 BKN
00:20 59.5 °F /  15.3 °C 53.7 °F /  12.1 °C 30.26 in /  1024.6 hPa East 1.0 mph /  1.6 km/h 6.0 mph /  9.7 km/h 81 % 0.00 in /  0 mm 0.0 W/m2 BKN
00:30 59.5 °F /  15.3 °C 53.7 °F /  12.1 °C 30.26 in /  1024.6 hPa East 1.0 mph /  1.6 km/h 3.0 mph /  4.8 km/h 81 % 0.00 in /  0 mm 0.0 W/m2 BKN
00:35 59.5 °F /  15.3 °C 53.7 °F /  12.1 °C 30.25 in /  1024.3 hPa ENE 1.0 mph /  1.6 km/h 3.0 mph /  4.8 km/h 81 % 0.00 in /  0 mm 0.0 W/m2 BKN
00:40 59.5 °F /  15.3 °C 53.7 °F /  12.1 °C 30.25 in /  1024.3 hPa ENE 2.0 mph /  3.2 km/h 6.0 mph /  9.7 km/h 81 % 0.00 in /  0 mm 0.0 W/m2 BKN
00:45 59.4 °F /  15.2 °C 53.5 °F /  11.9 °C 30.25 in /  1024.3 hPa NE 6.0 mph /  9.7 km/h 8.0 mph /  12.9 km/h 81 % 0.00 in /  0 mm 0.0 W/m2 BKN
00:50 59.4 °F /  15.2 °C 53.5 °F /  11.9 °C 30.26 in /  1024.6 hPa NE 1.0 mph /  1.6 km/h 8.0 mph /  12.9 km/h 81 % 0.00 in /  0 mm 0.0 W/m2 BKN
00:55 59.2 °F /  15.1 °C 53.4 °F /  11.9 °C 30.26 in /  1024.6 hPa ENE 1.0 mph /  1.6 km/h 5.0 mph /  8 km/h 81 % 0.00 in /  0 mm 0.0 W/m2 BKN
01:00 59.2 °F /  15.1 °C 53.4 °F /  11.9 °C 30.25 in /  1024.3 hPa ENE 2.0 mph /  3.2 km/h 7.0 mph /  11.3 km/h 81 % 0.00 in /  0 mm 0.0 W/m2 BKN
01:10 59.0 °F /  15 °C 53.2 °F /  11.8 °C 30.25 in /  1024.3 hPa East 1.0 mph /  1.6 km/h 3.0 mph /  4.8 km/h 81 % 0.00 in /  0 mm 0.0 W/m2 BKN
01:15 59.0 °F /  15 °C 53.2 °F /  11.8 °C 30.25 in /  1024.3 hPa ENE 3.0 mph /  4.8 km/h 5.0 mph /  8 km/h 81 % 0.00 in /  0 mm 0.0 W/m2 BKN
01:20 59.0 °F /  15 °C 53.2 °F /  11.8 °C 30.26 in /  1024.6 hPa East 1.0 mph /  1.6 km/h 6.0 mph /  9.7 km/h 81 % 0.00 in /  0 mm 0.0 W/m2 BKN
01:25 59.0 °F /  15 °C 53.2 °F /  11.8 °C 30.26 in /  1024.6 hPa Calm   5.0 mph /  8 km/h 81 % 0.00 in /  0 mm 0.0 W/m2 BKN
01:30 59.0 °F /  15 °C 53.2 °F /  11.8 °C 30.26 in /  1024.6 hPa ENE 1.0 mph /  1.6 km/h 6.0 mph /  9.7 km/h 81 % 0.00 in /  0 mm 0.0 W/m2 BKN
01:35 59.0 °F /  15 °C 53.2 °F /  11.8 °C 30.26 in /  1024.6 hPa Calm   3.0 mph /  4.8 km/h 81 % 0.00 in /  0 mm 0.0 W/m2 BKN
01:40 59.0 °F /  15 °C 53.2 °F /  11.8 °C 30.25 in /  1024.3 hPa ENE 1.0 mph /  1.6 km/h 3.0 mph /  4.8 km/h 81 % 0.00 in /  0 mm 0.0 W/m2 BKN
01:50 58.8 °F /  14.9 °C 53.3 °F /  11.8 °C 30.25 in /  1024.3 hPa Calm   3.0 mph /  4.8 km/h 82 % 0.00 in /  0 mm 0.0 W/m2 BKN
01:55 58.8 °F /  14.9 °C 53.3 °F /  11.8 °C 30.25 in /  1024.3 hPa ENE 1.0 mph /  1.6 km/h 4.0 mph /  6.4 km/h 82 % 0.00 in /  0 mm 0.0 W/m2 BKN
02:00 58.8 °F /  14.9 °C 53.3 °F /  11.8 °C 30.25 in /  1024.3 hPa ENE 1.0 mph /  1.6 km/h 3.0 mph /  4.8 km/h 82 % 0.00 in /  0 mm 0.0 W/m2 BKN
02:05 58.8 °F /  14.9 °C 53.3 °F /  11.8 °C 30.25 in /  1024.3 hPa ENE 1.0 mph /  1.6 km/h 4.0 mph /  6.4 km/h 82 % 0.00 in /  0 mm 0.0 W/m2 BKN
02:10 58.6 °F /  14.8 °C 53.2 °F /  11.8 °C 30.25 in /  1024.3 hPa ENE 1.0 mph /  1.6 km/h 4.0 mph /  6.4 km/h 82 % 0.00 in /  0 mm 0.0 W/m2 BKN
02:15 58.6 °F /  14.8 °C 53.2 °F /  11.8 °C 30.25 in /  1024.3 hPa ENE 1.0 mph /  1.6 km/h 3.0 mph /  4.8 km/h 82 % 0.00 in /  0 mm 0.0 W/m2 BKN
02:20 58.5 °F /  14.7 °C 53.0 °F /  11.7 °C 30.25 in /  1024.3 hPa ENE 1.0 mph /  1.6 km/h 6.0 mph /  9.7 km/h 82 % 0.00 in /  0 mm 0.0 W/m2 BKN
02:25 58.5 °F /  14.7 °C 53.0 °F /  11.7 °C 30.25 in /  1024.3 hPa ENE 1.0 mph /  1.6 km/h 6.0 mph /  9.7 km/h 82 % 0.00 in /  0 mm 0.0 W/m2 BKN
02:30 58.5 °F /  14.7 °C 53.0 °F /  11.7 °C 30.25 in /  1024.3 hPa NE 1.0 mph /  1.6 km/h 7.0 mph /  11.3 km/h 82 % 0.00 in /  0 mm 0.0 W/m2 BKN
02:35 58.5 °F /  14.7 °C 53.0 °F /  11.7 °C 30.24 in /  1023.9 hPa ENE 2.0 mph /  3.2 km/h 7.0 mph /  11.3 km/h 82 % 0.00 in /  0 mm 0.0 W/m2 BKN
02:40 58.5 °F /  14.7 °C 53.0 °F /  11.7 °C 30.24 in /  1023.9 hPa East 2.0 mph /  3.2 km/h 8.0 mph /  12.9 km/h 82 % 0.00 in /  0 mm 0.0 W/m2 BKN
02:45 58.3 °F /  14.6 °C 52.8 °F /  11.6 °C 30.25 in /  1024.3 hPa ENE 3.0 mph /  4.8 km/h 6.0 mph /  9.7 km/h 82 % 0.00 in /  0 mm 0.0 W/m2 BKN
02:50 58.3 °F /  14.6 °C 53.1 °F /  11.7 °C 30.25 in /  1024.3 hPa NNE 3.0 mph /  4.8 km/h 7.0 mph /  11.3 km/h 83 % 0.00 in /  0 mm 0.0 W/m2 BKN
02:55 58.3 °F /  14.6 °C 53.1 °F /  11.7 °C 30.24 in /  1023.9 hPa North 3.0 mph /  4.8 km/h 7.0 mph /  11.3 km/h 83 % 0.00 in /  0 mm 0.0 W/m2 BKN
03:00 57.8 °F /  14.3 °C 52.3 °F /  11.3 °C 30.25 in /  1024.3 hPa North 3.0 mph /  4.8 km/h 6.0 mph /  9.7 km/h 82 % 0.00 in /  0 mm 0.0 W/m2 BKN
03:10 57.2 °F /  14 °C 51.8 °F /  11 °C 30.24 in /  1023.9 hPa NNE 5.0 mph /  8 km/h 8.0 mph /  12.9 km/h 82 % 0.00 in /  0 mm 0.0 W/m2 BKN
03:20 57.0 °F /  13.9 °C 51.9 °F /  11.1 °C 30.24 in /  1023.9 hPa North 3.0 mph /  4.8 km/h 6.0 mph /  9.7 km/h 83 % 0.00 in /  0 mm 0.0 W/m2 BKN
03:25 57.0 °F /  13.9 °C 52.2 °F /  11.2 °C 30.24 in /  1023.9 hPa North 3.0 mph /  4.8 km/h 6.0 mph /  9.7 km/h 84 % 0.00 in /  0 mm 0.0 W/m2 BKN
03:35 56.1 °F /  13.4 °C 51.4 °F /  10.8 °C 30.24 in /  1023.9 hPa NNE 3.0 mph /  4.8 km/h 7.0 mph /  11.3 km/h 84 % 0.00 in /  0 mm 0.0 W/m2 BKN
03:40 56.1 °F /  13.4 °C 51.4 °F /  10.8 °C 30.24 in /  1023.9 hPa NE 5.0 mph /  8 km/h 7.0 mph /  11.3 km/h 84 % 0.00 in /  0 mm 0.0 W/m2 BKN
03:45 56.1 °F /  13.4 °C 51.4 °F /  10.8 °C 30.24 in /  1023.9 hPa NE 2.0 mph /  3.2 km/h 7.0 mph /  11.3 km/h 84 % 0.00 in /  0 mm 0.0 W/m2 BKN
03:50 56.1 °F /  13.4 °C 51.4 °F /  10.8 °C 30.25 in /  1024.3 hPa NE 3.0 mph /  4.8 km/h 7.0 mph /  11.3 km/h 84 % 0.00 in /  0 mm 0.0 W/m2 BKN
03:55 56.1 °F /  13.4 °C 51.4 °F /  10.8 °C 30.24 in /  1023.9 hPa NE 5.0 mph /  8 km/h 8.0 mph /  12.9 km/h 84 % 0.00 in /  0 mm 0.0 W/m2 BKN
04:00 56.1 °F /  13.4 °C 51.4 °F /  10.8 °C 30.24 in /  1023.9 hPa NNE 6.0 mph /  9.7 km/h 7.0 mph /  11.3 km/h 84 % 0.00 in /  0 mm 0.0 W/m2 BKN
04:05 56.0 °F /  13.3 °C 51.2 °F /  10.7 °C 30.25 in /  1024.3 hPa NNE 2.0 mph /  3.2 km/h 8.0 mph /  12.9 km/h 84 % 0.00 in /  0 mm 0.0 W/m2 BKN
04:10 55.8 °F /  13.2 °C 51.0 °F /  10.6 °C 30.25 in /  1024.3 hPa NNE 1.0 mph /  1.6 km/h 7.0 mph /  11.3 km/h 84 % 0.00 in /  0 mm 0.0 W/m2 BKN
04:15 55.8 °F /  13.2 °C 51.0 °F /  10.6 °C 30.25 in /  1024.3 hPa NNE 2.0 mph /  3.2 km/h 5.0 mph /  8 km/h 84 % 0.00 in /  0 mm 0.0 W/m2 BKN
04:20 55.8 °F /  13.2 °C 51.0 °F /  10.6 °C 30.25 in /  1024.3 hPa NE 1.0 mph /  1.6 km/h 6.0 mph /  9.7 km/h 84 % 0.00 in /  0 mm 0.0 W/m2 BKN
04:30 55.6 °F /  13.1 °C 50.8 °F /  10.4 °C 30.24 in /  1023.9 hPa NNE 2.0 mph /  3.2 km/h 4.0 mph /  6.4 km/h 84 % 0.00 in /  0 mm 0.0 W/m2 BKN
04:35 55.6 °F /  13.1 °C 51.1 °F /  10.6 °C 30.25 in /  1024.3 hPa NE 1.0 mph /  1.6 km/h 4.0 mph /  6.4 km/h 85 % 0.00 in /  0 mm 0.0 W/m2 BKN
04:40 55.6 °F /  13.1 °C 51.1 °F /  10.6 °C 30.24 in /  1023.9 hPa NE 2.0 mph /  3.2 km/h 5.0 mph /  8 km/h 85 % 0.00 in /  0 mm 0.0 W/m2 BKN
04:45 55.6 °F /  13.1 °C 51.1 °F /  10.6 °C 30.24 in /  1023.9 hPa NE 1.0 mph /  1.6 km/h 6.0 mph /  9.7 km/h 85 % 0.00 in /  0 mm 0.0 W/m2 BKN
04:50 55.6 °F /  13.1 °C 51.1 °F /  10.6 °C 30.25 in /  1024.3 hPa NE 1.0 mph /  1.6 km/h 6.0 mph /  9.7 km/h 85 % 0.00 in /  0 mm 0.0 W/m2 BKN
04:55 55.6 °F /  13.1 °C 51.1 °F /  10.6 °C 30.24 in /  1023.9 hPa NE 3.0 mph /  4.8 km/h 7.0 mph /  11.3 km/h 85 % 0.00 in /  0 mm 0.0 W/m2 BKN
05:00 55.6 °F /  13.1 °C 51.1 °F /  10.6 °C 30.24 in /  1023.9 hPa NE 5.0 mph /  8 km/h 7.0 mph /  11.3 km/h 85 % 0.00 in /  0 mm 0.0 W/m2 BKN
05:10 55.4 °F /  13 °C 51.0 °F /  10.6 °C 30.24 in /  1023.9 hPa NW 2.0 mph /  3.2 km/h 7.0 mph /  11.3 km/h 85 % 0.00 in /  0 mm 0.0 W/m2 BKN
05:15 55.4 °F /  13 °C 51.0 °F /  10.6 °C 30.24 in /  1023.9 hPa North 3.0 mph /  4.8 km/h 6.0 mph /  9.7 km/h 85 % 0.00 in /  0 mm 0.0 W/m2 BKN
05:20 55.2 °F /  12.9 °C 51.1 °F /  10.6 °C 30.25 in /  1024.3 hPa NE 3.0 mph /  4.8 km/h 6.0 mph /  9.7 km/h 86 % 0.00 in /  0 mm 0.0 W/m2 BKN
05:25 55.2 °F /  12.9 °C 51.1 °F /  10.6 °C 30.25 in /  1024.3 hPa NNE 3.0 mph /  4.8 km/h 9.0 mph /  14.5 km/h 86 % 0.00 in /  0 mm 0.0 W/m2 BKN
05:30 55.2 °F /  12.9 °C 50.8 °F /  10.4 °C 30.24 in /  1023.9 hPa NNE 5.0 mph /  8 km/h 7.0 mph /  11.3 km/h 85 % 0.00 in /  0 mm 0.0 W/m2 BKN
05:35 55.2 °F /  12.9 °C 50.8 °F /  10.4 °C 30.25 in /  1024.3 hPa NNE 3.0 mph /  4.8 km/h 7.0 mph /  11.3 km/h 85 % 0.00 in /  0 mm 0.0 W/m2 BKN
05:40 55.2 °F /  12.9 °C 50.8 °F /  10.4 °C 30.24 in /  1023.9 hPa NE 3.0 mph /  4.8 km/h 8.0 mph /  12.9 km/h 85 % 0.00 in /  0 mm 0.0 W/m2 BKN
05:45 55.2 °F /  12.9 °C 50.8 °F /  10.4 °C 30.24 in /  1023.9 hPa ENE 1.0 mph /  1.6 km/h 7.0 mph /  11.3 km/h 85 % 0.00 in /  0 mm 0.0 W/m2 BKN
05:55 55.2 °F /  12.9 °C 50.8 °F /  10.4 °C 30.24 in /  1023.9 hPa NE 3.0 mph /  4.8 km/h 6.0 mph /  9.7 km/h 85 % 0.00 in /  0 mm 0.0 W/m2 BKN
06:00 55.4 °F /  13 °C 50.3 °F /  10.2 °C 30.24 in /  1023.9 hPa NE 3.0 mph /  4.8 km/h 7.0 mph /  11.3 km/h 83 % 0.00 in /  0 mm 0.0 W/m2 BKN
06:05 55.6 °F /  13.1 °C 50.5 °F /  10.3 °C 30.24 in /  1023.9 hPa NE 5.0 mph /  8 km/h 7.0 mph /  11.3 km/h 83 % 0.00 in /  0 mm 0.0 W/m2 BKN
06:10 55.6 °F /  13.1 °C 50.2 °F /  10.1 °C 30.24 in /  1023.9 hPa NE 5.0 mph /  8 km/h 9.0 mph /  14.5 km/h 82 % 0.00 in /  0 mm 0.0 W/m2 BKN
06:15 55.8 °F /  13.2 °C 50.0 °F /  10 °C 30.24 in /  1023.9 hPa NNE 3.0 mph /  4.8 km/h 9.0 mph /  14.5 km/h 81 % 0.00 in /  0 mm 0.0 W/m2 BKN
06:20 55.8 °F /  13.2 °C 49.7 °F /  9.8 °C 30.24 in /  1023.9 hPa NNE 3.0 mph /  4.8 km/h 8.0 mph /  12.9 km/h 80 % 0.00 in /  0 mm 0.0 W/m2 BKN
06:25 55.9 °F /  13.3 °C 49.5 °F /  9.7 °C 30.24 in /  1023.9 hPa NE 1.0 mph /  1.6 km/h 8.0 mph /  12.9 km/h 79 % 0.00 in /  0 mm 0.0 W/m2 BKN
06:30 56.1 °F /  13.4 °C 49.7 °F /  9.8 °C 30.25 in /  1024.3 hPa NE 3.0 mph /  4.8 km/h 7.0 mph /  11.3 km/h 79 % 0.00 in /  0 mm 0.0 W/m2 BKN
06:35 56.1 °F /  13.4 °C 49.7 °F /  9.8 °C 30.24 in /  1023.9 hPa NE 3.0 mph /  4.8 km/h 7.0 mph /  11.3 km/h 79 % 0.00 in /  0 mm 0.0 W/m2 BKN
06:40 57.0 °F /  13.9 °C 50.2 °F /  10.1 °C 30.24 in /  1023.9 hPa NE 2.0 mph /  3.2 km/h 7.0 mph /  11.3 km/h 78 % 0.00 in /  0 mm 0.0 W/m2 BKN
06:45 57.2 °F /  14 °C 50.0 °F /  10 °C 30.24 in /  1023.9 hPa NNE 2.0 mph /  3.2 km/h 6.0 mph /  9.7 km/h 77 % 0.00 in /  0 mm 0.0 W/m2 BKN
06:50 57.4 °F /  14.1 °C 49.9 °F /  9.9 °C 30.25 in /  1024.3 hPa ENE 2.0 mph /  3.2 km/h 6.0 mph /  9.7 km/h 76 % 0.00 in /  0 mm 0.0 W/m2 BKN
06:55 57.4 °F /  14.1 °C 49.5 °F /  9.7 °C 30.24 in /  1023.9 hPa ENE 3.0 mph /  4.8 km/h 7.0 mph /  11.3 km/h 75 % 0.00 in /  0 mm 0.0 W/m2 BKN
07:00 57.2 °F /  14 °C 49.3 °F /  9.6 °C 30.24 in /  1023.9 hPa NE 2.0 mph /  3.2 km/h 6.0 mph /  9.7 km/h 75 % 0.00 in /  0 mm 0.0 W/m2 BKN
07:05 57.0 °F /  13.9 °C 49.2 °F /  9.6 °C 30.25 in /  1024.3 hPa ENE 2.0 mph /  3.2 km/h 6.0 mph /  9.7 km/h 75 % 0.00 in /  0 mm 0.0 W/m2 BKN
07:10 57.0 °F /  13.9 °C 49.5 °F /  9.7 °C 30.24 in /  1023.9 hPa ENE 1.0 mph /  1.6 km/h 8.0 mph /  12.9 km/h 76 % 0.00 in /  0 mm 0.0 W/m2 BKN
07:15 56.1 °F /  13.4 °C 48.7 °F /  9.3 °C 30.24 in /  1023.9 hPa NE 3.0 mph /  4.8 km/h 8.0 mph /  12.9 km/h 76 % 0.00 in /  0 mm 0.0 W/m2 BKN
07:20 56.1 °F /  13.4 °C 49.0 °F /  9.4 °C 30.24 in /  1023.9 hPa NNE 3.0 mph /  4.8 km/h 8.0 mph /  12.9 km/h 77 % 0.00 in /  0 mm 0.0 W/m2 BKN
07:25 56.1 °F /  13.4 °C 49.0 °F /  9.4 °C 30.24 in /  1023.9 hPa NE 3.0 mph /  4.8 km/h 8.0 mph /  12.9 km/h 77 % 0.00 in /  0 mm 0.0 W/m2 BKN
07:30 56.1 °F /  13.4 °C 49.0 °F /  9.4 °C 30.24 in /  1023.9 hPa ENE 2.0 mph /  3.2 km/h 8.0 mph /  12.9 km/h 77 % 0.00 in /  0 mm 0.0 W/m2 BKN
07:40 57.0 °F /  13.9 °C 49.9 °F /  9.9 °C 30.24 in /  1023.9 hPa NNE 3.0 mph /  4.8 km/h 8.0 mph /  12.9 km/h 77 % 0.00 in /  0 mm 0.0 W/m2 BKN
07:45 57.0 °F /  13.9 °C 49.9 °F /  9.9 °C 30.24 in /  1023.9 hPa ENE 3.0 mph /  4.8 km/h 8.0 mph /  12.9 km/h 77 % 0.00 in /  0 mm 0.0 W/m2 BKN
07:50 57.0 °F /  13.9 °C 49.5 °F /  9.7 °C 30.25 in /  1024.3 hPa East 2.0 mph /  3.2 km/h 10.0 mph /  16.1 km/h 76 % 0.00 in /  0 mm 0.0 W/m2 BKN
07:55 57.0 °F /  13.9 °C 49.2 °F /  9.6 °C 30.24 in /  1023.9 hPa North 6.0 mph /  9.7 km/h 9.0 mph /  14.5 km/h 75 % 0.00 in /  0 mm 0.0 W/m2 BKN
08:00 57.0 °F /  13.9 °C 49.2 °F /  9.6 °C 30.24 in /  1023.9 hPa NE 1.0 mph /  1.6 km/h 9.0 mph /  14.5 km/h 75 % 0.00 in /  0 mm 0.0 W/m2 BKN
08:05 57.2 °F /  14 °C 49.0 °F /  9.4 °C 30.24 in /  1023.9 hPa NE 2.0 mph /  3.2 km/h 8.0 mph /  12.9 km/h 74 % 0.00 in /  0 mm 0.0 W/m2 BKN
08:10 57.2 °F /  14 °C 49.0 °F /  9.4 °C 30.24 in /  1023.9 hPa ENE 1.0 mph /  1.6 km/h 8.0 mph /  12.9 km/h 74 % 0.00 in /  0 mm 0.0 W/m2 BKN
08:15 57.6 °F /  14.2 °C 49.3 °F /  9.6 °C 30.24 in /  1023.9 hPa ENE 3.0 mph /  4.8 km/h 7.0 mph /  11.3 km/h 74 % 0.00 in /  0 mm 0.0 W/m2 BKN
08:20 58.5 °F /  14.7 °C 49.8 °F /  9.9 °C 30.24 in /  1023.9 hPa North 2.0 mph /  3.2 km/h 7.0 mph /  11.3 km/h 73 % 0.00 in /  0 mm 0.0 W/m2 BKN
08:25 59.2 °F /  15.1 °C 49.8 °F /  9.9 °C 30.24 in /  1023.9 hPa SE 1.0 mph /  1.6 km/h 6.0 mph /  9.7 km/h 71 % 0.00 in /  0 mm 0.0 W/m2 BKN
08:30 59.9 °F /  15.5 °C 50.1 °F /  10.1 °C 30.24 in /  1023.9 hPa ESE 3.0 mph /  4.8 km/h 9.0 mph /  14.5 km/h 70 % 0.00 in /  0 mm 0.0 W/m2 BKN
08:35 60.3 °F /  15.7 °C 50.0 °F /  10 °C 30.24 in /  1023.9 hPa ESE 1.0 mph /  1.6 km/h 9.0 mph /  14.5 km/h 69 % 0.00 in /  0 mm 0.0 W/m2 BKN
08:40 61.0 °F /  16.1 °C 50.3 °F /  10.2 °C 30.24 in /  1023.9 hPa ESE 1.0 mph /  1.6 km/h 8.0 mph /  12.9 km/h 68 % 0.00 in /  0 mm 0.0 W/m2 BKN
08:45 61.9 °F /  16.6 °C 50.4 °F /  10.2 °C 30.24 in /  1023.9 hPa East 1.0 mph /  1.6 km/h 6.0 mph /  9.7 km/h 66 % 0.00 in /  0 mm 0.0 W/m2 BKN
08:50 64.0 °F /  17.8 °C 51.6 °F /  10.9 °C 30.24 in /  1023.9 hPa NNE 2.0 mph /  3.2 km/h 8.0 mph /  12.9 km/h 64 % 0.00 in /  0 mm 0.0 W/m2 BKN
08:55 64.4 °F /  18 °C 51.1 °F /  10.6 °C 30.24 in /  1023.9 hPa ENE 1.0 mph /  1.6 km/h 8.0 mph /  12.9 km/h 62 % 0.00 in /  0 mm 0.0 W/m2 BKN
09:00 64.6 °F /  18.1 °C 51.3 °F /  10.7 °C 30.24 in /  1023.9 hPa East 1.0 mph /  1.6 km/h 6.0 mph /  9.7 km/h 62 % 0.00 in /  0 mm 0.0 W/m2 BKN
09:10 65.8 °F /  18.8 °C 52.0 °F /  11.1 °C 30.25 in /  1024.3 hPa ENE 6.0 mph /  9.7 km/h 10.0 mph /  16.1 km/h 61 % 0.00 in /  0 mm 0.0 W/m2 BKN
09:15 65.7 °F /  18.7 °C 51.4 °F /  10.8 °C 30.25 in /  1024.3 hPa NE 2.0 mph /  3.2 km/h 8.0 mph /  12.9 km/h 60 % 0.00 in /  0 mm 0.0 W/m2 BKN
09:20 65.8 °F /  18.8 °C 51.1 °F /  10.6 °C 30.24 in /  1023.9 hPa ENE 1.0 mph /  1.6 km/h 5.0 mph /  8 km/h 59 % 0.00 in /  0 mm 0.0 W/m2 BKN
09:25 66.4 °F /  19.1 °C 51.1 °F /  10.6 °C 30.24 in /  1023.9 hPa ENE 2.0 mph /  3.2 km/h 7.0 mph /  11.3 km/h 58 % 0.00 in /  0 mm 0.0 W/m2 BKN
09:30 66.7 °F /  19.3 °C 51.0 °F /  10.6 °C 30.24 in /  1023.9 hPa ENE 1.0 mph /  1.6 km/h 7.0 mph /  11.3 km/h 57 % 0.00 in /  0 mm 0.0 W/m2 BKN
09:35 67.1 °F /  19.5 °C 51.4 °F /  10.8 °C 30.24 in /  1023.9 hPa ENE 3.0 mph /  4.8 km/h 7.0 mph /  11.3 km/h 57 % 0.00 in /  0 mm 0.0 W/m2 BKN
09:40 67.6 °F /  19.8 °C 51.4 °F /  10.8 °C 30.25 in /  1024.3 hPa ENE 5.0 mph /  8 km/h 9.0 mph /  14.5 km/h 56 % 0.00 in /  0 mm 0.0 W/m2 BKN
09:45 68.0 °F /  20 °C 50.7 °F /  10.4 °C 30.24 in /  1023.9 hPa NNE 6.0 mph /  9.7 km/h 9.0 mph /  14.5 km/h 54 % 0.00 in /  0 mm 0.0 W/m2 BKN
09:50 67.8 °F /  19.9 °C 51.1 °F /  10.6 °C 30.24 in /  1023.9 hPa NNE 5.0 mph /  8 km/h 9.0 mph /  14.5 km/h 55 % 0.00 in /  0 mm 0.0 W/m2 BKN
09:55 67.5 °F /  19.7 °C 51.2 °F /  10.7 °C 30.24 in /  1023.9 hPa NE 2.0 mph /  3.2 km/h 9.0 mph /  14.5 km/h 56 % 0.00 in /  0 mm 0.0 W/m2 BKN
10:00 67.8 °F /  19.9 °C 51.5 °F /  10.8 °C 30.23 in /  1023.6 hPa ENE 3.0 mph /  4.8 km/h 6.0 mph /  9.7 km/h 56 % 0.00 in /  0 mm 0.0 W/m2 BKN
10:10 68.9 °F /  20.5 °C 51.6 °F /  10.9 °C 30.23 in /  1023.6 hPa ENE 2.0 mph /  3.2 km/h 7.0 mph /  11.3 km/h 54 % 0.00 in /  0 mm 0.0 W/m2 BKN
10:15 69.3 °F /  20.7 °C 51.9 °F /  11.1 °C 30.23 in /  1023.6 hPa East 2.0 mph /  3.2 km/h 7.0 mph /  11.3 km/h 54 % 0.00 in /  0 mm 0.0 W/m2 BKN
10:20 69.4 °F /  20.8 °C 51.6 °F /  10.9 °C 30.23 in /  1023.6 hPa ENE 2.0 mph /  3.2 km/h 6.0 mph /  9.7 km/h 53 % 0.00 in /  0 mm 0.0 W/m2 SCT
10:25 69.6 °F /  20.9 °C 51.7 °F /  10.9 °C 30.23 in /  1023.6 hPa ENE 2.0 mph /  3.2 km/h 8.0 mph /  12.9 km/h 53 % 0.00 in /  0 mm 0.0 W/m2 SCT
10:30 69.8 °F /  21 °C 51.4 °F /  10.8 °C 30.23 in /  1023.6 hPa ESE 6.0 mph /  9.7 km/h 12.0 mph /  19.3 km/h 52 % 0.00 in /  0 mm 0.0 W/m2 SCT
10:35 70.0 °F /  21.1 °C 51.5 °F /  10.8 °C 30.22 in /  1023.2 hPa East 7.0 mph /  11.3 km/h 12.0 mph /  19.3 km/h 52 % 0.00 in /  0 mm 0.0 W/m2 SCT
10:40 70.1 °F /  21.2 °C 51.7 °F /  10.9 °C 30.22 in /  1023.2 hPa ENE 3.0 mph /  4.8 km/h 9.0 mph /  14.5 km/h 52 % 0.00 in /  0 mm 0.0 W/m2 SCT
10:45 70.3 °F /  21.3 °C 51.9 °F /  11.1 °C 30.22 in /  1023.2 hPa ENE 1.0 mph /  1.6 km/h 9.0 mph /  14.5 km/h 52 % 0.00 in /  0 mm 0.0 W/m2 SCT
10:50 70.7 °F /  21.5 °C 52.2 °F /  11.2 °C 30.22 in /  1023.2 hPa NE 2.0 mph /  3.2 km/h 7.0 mph /  11.3 km/h 52 % 0.00 in /  0 mm 0.0 W/m2 SCT
11:00 70.9 °F /  21.6 °C 52.4 °F /  11.3 °C 30.22 in /  1023.2 hPa NE 3.0 mph /  4.8 km/h 10.0 mph /  16.1 km/h 52 % 0.00 in /  0 mm 0.0 W/m2 SCT
11:05 70.9 °F /  21.6 °C 52.4 °F /  11.3 °C 30.22 in /  1023.2 hPa NW 2.0 mph /  3.2 km/h 8.0 mph /  12.9 km/h 52 % 0.00 in /  0 mm 0.0 W/m2 SCT
11:10 71.2 °F /  21.8 °C 52.2 °F /  11.2 °C 30.22 in /  1023.2 hPa NW 5.0 mph /  8 km/h 7.0 mph /  11.3 km/h 51 % 0.00 in /  0 mm 0.0 W/m2 SCT
11:20 71.8 °F /  22.1 °C 53.7 °F /  12.1 °C 30.22 in /  1023.2 hPa NE 3.0 mph /  4.8 km/h 6.0 mph /  9.7 km/h 53 % 0.00 in /  0 mm 0.0 W/m2 SCT
11:25 72.3 °F /  22.4 °C 53.7 °F /  12.1 °C 30.21 in /  1022.9 hPa ENE 2.0 mph /  3.2 km/h 6.0 mph /  9.7 km/h 52 % 0.00 in /  0 mm 0.0 W/m2 SCT
11:30 72.5 °F /  22.5 °C 53.9 °F /  12.2 °C 30.22 in /  1023.2 hPa East 1.0 mph /  1.6 km/h 7.0 mph /  11.3 km/h 52 % 0.00 in /  0 mm 0.0 W/m2 SCT
11:35 72.7 °F /  22.6 °C 53.5 °F /  11.9 °C 30.22 in /  1023.2 hPa ENE 1.0 mph /  1.6 km/h 8.0 mph /  12.9 km/h 51 % 0.00 in /  0 mm 0.0 W/m2 SCT
11:40 73.2 °F /  22.9 °C 54.5 °F /  12.5 °C 30.22 in /  1023.2 hPa ENE 1.0 mph /  1.6 km/h 8.0 mph /  12.9 km/h 52 % 0.00 in /  0 mm 0.0 W/m2 SCT
11:45 73.8 °F /  23.2 °C 53.4 °F /  11.9 °C 30.22 in /  1023.2 hPa NE 6.0 mph /  9.7 km/h 12.0 mph /  19.3 km/h 49 % 0.00 in /  0 mm 0.0 W/m2 SCT
11:50 73.6 °F /  23.1 °C 53.8 °F /  12.1 °C 30.21 in /  1022.9 hPa NNE 3.0 mph /  4.8 km/h 12.0 mph /  19.3 km/h 50 % 0.00 in /  0 mm 0.0 W/m2 SCT
11:55 73.8 °F /  23.2 °C 52.8 °F /  11.6 °C 30.22 in /  1023.2 hPa NNE 1.0 mph /  1.6 km/h 7.0 mph /  11.3 km/h 48 % 0.00 in /  0 mm 0.0 W/m2 SCT
12:00 73.9 °F /  23.3 °C 53.0 °F /  11.7 °C 30.22 in /  1023.2 hPa SE 1.0 mph /  1.6 km/h 7.0 mph /  11.3 km/h 48 % 0.00 in /  0 mm 0.0 W/m2 SCT
12:10 75.0 °F /  23.9 °C 52.8 °F /  11.6 °C 30.22 in /  1023.2 hPa NE 3.0 mph /  4.8 km/h 6.0 mph /  9.7 km/h 46 % 0.00 in /  0 mm 0.0 W/m2 SCT
12:20 75.6 °F /  24.2 °C 52.1 °F /  11.2 °C 30.21 in /  1022.9 hPa NE 1.0 mph /  1.6 km/h 6.0 mph /  9.7 km/h 44 % 0.00 in /  0 mm 0.0 W/m2 SCT
12:25 75.7 °F /  24.3 °C 52.3 °F /  11.3 °C 30.22 in /  1023.2 hPa NE 2.0 mph /  3.2 km/h 8.0 mph /  12.9 km/h 44 % 0.00 in /  0 mm 0.0 W/m2 SCT
12:30 75.9 °F /  24.4 °C 52.4 °F /  11.3 °C 30.20 in /  1022.6 hPa NE 2.0 mph /  3.2 km/h 5.0 mph /  8 km/h 44 % 0.00 in /  0 mm 0.0 W/m2 SCT
12:35 75.9 °F /  24.4 °C 52.4 °F /  11.3 °C 30.21 in /  1022.9 hPa ENE 5.0 mph /  8 km/h 8.0 mph /  12.9 km/h 44 % 0.00 in /  0 mm 0.0 W/m2 SCT
12:40 75.9 °F /  24.4 °C 52.4 °F /  11.3 °C 30.21 in /  1022.9 hPa ENE 1.0 mph /  1.6 km/h 8.0 mph /  12.9 km/h 44 % 0.00 in /  0 mm 0.0 W/m2 SCT
12:45 75.9 °F /  24.4 °C 51.2 °F /  10.7 °C 30.21 in /  1022.9 hPa NNE 5.0 mph /  8 km/h 10.0 mph /  16.1 km/h 42 % 0.00 in /  0 mm 0.0 W/m2 SCT
12:50 75.9 °F /  24.4 °C 51.8 °F /  11 °C 30.21 in /  1022.9 hPa NNE 5.0 mph /  8 km/h 12.0 mph /  19.3 km/h 43 % 0.00 in /  0 mm 0.0 W/m2 SCT
12:55 75.9 °F /  24.4 °C 52.4 °F /  11.3 °C 30.21 in /  1022.9 hPa ENE 3.0 mph /  4.8 km/h 8.0 mph /  12.9 km/h 44 % 0.00 in /  0 mm 0.0 W/m2 SCT
13:00 75.9 °F /  24.4 °C 52.4 °F /  11.3 °C 30.21 in /  1022.9 hPa ENE 2.0 mph /  3.2 km/h 8.0 mph /  12.9 km/h 44 % 0.00 in /  0 mm 0.0 W/m2 SCT
13:05 75.9 °F /  24.4 °C 51.8 °F /  11 °C 30.19 in /  1022.2 hPa ENE 3.0 mph /  4.8 km/h 8.0 mph /  12.9 km/h 43 % 0.00 in /  0 mm 0.0 W/m2 SCT
13:10 75.9 °F /  24.4 °C 52.4 °F /  11.3 °C 30.20 in /  1022.6 hPa ENE 2.0 mph /  3.2 km/h 7.0 mph /  11.3 km/h 44 % 0.00 in /  0 mm 0.0 W/m2 SCT
13:15 77.4 °F /  25.2 °C 51.8 °F /  11 °C 30.21 in /  1022.9 hPa NE 5.0 mph /  8 km/h 8.0 mph /  12.9 km/h 41 % 0.00 in /  0 mm 0.0 W/m2 SCT
13:20 77.4 °F /  25.2 °C 52.5 °F /  11.4 °C 30.20 in /  1022.6 hPa ENE 1.0 mph /  1.6 km/h 9.0 mph /  14.5 km/h 42 % 0.00 in /  0 mm 0.0 W/m2 SCT
13:25 77.4 °F /  25.2 °C 52.5 °F /  11.4 °C 30.20 in /  1022.6 hPa ESE 3.0 mph /  4.8 km/h 6.0 mph /  9.7 km/h 42 % 0.00 in /  0 mm 0.0 W/m2 SCT
13:30 77.5 °F /  25.3 °C 52.6 °F /  11.4 °C 30.20 in /  1022.6 hPa East 1.0 mph /  1.6 km/h 6.0 mph /  9.7 km/h 42 % 0.00 in /  0 mm 0.0 W/m2 SCT
13:35 77.9 °F /  25.5 °C 52.3 °F /  11.3 °C 30.20 in /  1022.6 hPa NE 6.0 mph /  9.7 km/h 7.0 mph /  11.3 km/h 41 % 0.00 in /  0 mm 0.0 W/m2 SCT
13:45 77.9 °F /  25.5 °C 52.3 °F /  11.3 °C 30.20 in /  1022.6 hPa North 3.0 mph /  4.8 km/h 9.0 mph /  14.5 km/h 41 % 0.00 in /  0 mm 0.0 W/m2 SCT
13:50 77.9 °F /  25.5 °C 52.3 °F /  11.3 °C 30.20 in /  1022.6 hPa NNE 2.0 mph /  3.2 km/h 8.0 mph /  12.9 km/h 41 % 0.00 in /  0 mm 0.0 W/m2 BKN
13:55 77.9 °F /  25.5 °C 51.6 °F /  10.9 °C 30.19 in /  1022.2 hPa NE 2.0 mph /  3.2 km/h 8.0 mph /  12.9 km/h 40 % 0.00 in /  0 mm 0.0 W/m2 BKN
14:00 77.4 °F /  25.2 °C 51.8 °F /  11 °C 30.19 in /  1022.2 hPa NNE 3.0 mph /  4.8 km/h 10.0 mph /  16.1 km/h 41 % 0.00 in /  0 mm 0.0 W/m2 BKN
14:05 77.5 °F /  25.3 °C 52.6 °F /  11.4 °C 30.20 in /  1022.6 hPa ENE 2.0 mph /  3.2 km/h 10.0 mph /  16.1 km/h 42 % 0.00 in /  0 mm 0.0 W/m2 BKN
14:10 78.1 °F /  25.6 °C 53.1 °F /  11.7 °C 30.19 in /  1022.2 hPa NE 6.0 mph /  9.7 km/h 9.0 mph /  14.5 km/h 42 % 0.00 in /  0 mm 0.0 W/m2 BKN
14:15 78.4 °F /  25.8 °C 53.4 °F /  11.9 °C 30.19 in /  1022.2 hPa NNE 2.0 mph /  3.2 km/h 9.0 mph /  14.5 km/h 42 % 0.00 in /  0 mm 0.0 W/m2 BKN
14:20 78.8 °F /  26 °C 53.8 °F /  12.1 °C 30.19 in /  1022.2 hPa NE 3.0 mph /  4.8 km/h 10.0 mph /  16.1 km/h 42 % 0.00 in /  0 mm 0.0 W/m2 BKN
14:25 79.3 °F /  26.3 °C 53.6 °F /  12 °C 30.19 in /  1022.2 hPa NNE 7.0 mph /  11.3 km/h 14.0 mph /  22.5 km/h 41 % 0.00 in /  0 mm 0.0 W/m2 BKN
14:30 78.6 °F /  25.9 °C 53.6 °F /  12 °C 30.18 in /  1021.9 hPa North 3.0 mph /  4.8 km/h 14.0 mph /  22.5 km/h 42 % 0.00 in /  0 mm 0.0 W/m2 BKN
14:35 78.6 °F /  25.9 °C 53.6 °F /  12 °C 30.18 in /  1021.9 hPa North 3.0 mph /  4.8 km/h 8.0 mph /  12.9 km/h 42 % 0.00 in /  0 mm 0.0 W/m2 BKN
14:40 79.3 °F /  26.3 °C 53.6 °F /  12 °C 30.18 in /  1021.9 hPa NE 6.0 mph /  9.7 km/h 8.0 mph /  12.9 km/h 41 % 0.00 in /  0 mm 0.0 W/m2 BKN
14:45 79.5 °F /  26.4 °C 53.8 °F /  12.1 °C 30.17 in /  1021.6 hPa NNE 3.0 mph /  4.8 km/h 9.0 mph /  14.5 km/h 41 % 0.00 in /  0 mm 0.0 W/m2 BKN
14:50 79.9 °F /  26.6 °C 54.1 °F /  12.3 °C 30.17 in /  1021.6 hPa NNE 2.0 mph /  3.2 km/h 8.0 mph /  12.9 km/h 41 % 0.00 in /  0 mm 0.0 W/m2 BKN
14:55 80.4 °F /  26.9 °C 53.9 °F /  12.2 °C 30.17 in /  1021.6 hPa NE 5.0 mph /  8 km/h 9.0 mph /  14.5 km/h 40 % 0.00 in /  0 mm 0.0 W/m2 BKN
15:00 80.6 °F /  27 °C 54.0 °F /  12.2 °C 30.17 in /  1021.6 hPa NE 3.0 mph /  4.8 km/h 9.0 mph /  14.5 km/h 40 % 0.00 in /  0 mm 0.0 W/m2 BKN
15:10 80.8 °F /  27.1 °C 53.5 °F /  11.9 °C 30.16 in /  1021.2 hPa ENE 3.0 mph /  4.8 km/h 8.0 mph /  12.9 km/h 39 % 0.00 in /  0 mm 0.0 W/m2 BKN
15:15 81.1 °F /  27.3 °C 54.5 °F /  12.5 °C 30.16 in /  1021.2 hPa ENE 3.0 mph /  4.8 km/h 8.0 mph /  12.9 km/h 40 % 0.00 in /  0 mm 0.0 W/m2 BKN
15:20 81.7 °F /  27.6 °C 54.3 °F /  12.4 °C 30.15 in /  1020.9 hPa NE 6.0 mph /  9.7 km/h 8.0 mph /  12.9 km/h 39 % 0.00 in /  0 mm 0.0 W/m2 BKN
15:25 81.7 °F /  27.6 °C 54.3 °F /  12.4 °C 30.15 in /  1020.9 hPa NE 3.0 mph /  4.8 km/h 8.0 mph /  12.9 km/h 39 % 0.00 in /  0 mm 0.0 W/m2 BKN
15:30 81.9 °F /  27.7 °C 53.8 °F /  12.1 °C 30.16 in /  1021.2 hPa ENE 2.0 mph /  3.2 km/h 6.0 mph /  9.7 km/h 38 % 0.00 in /  0 mm 0.0 W/m2 BKN
15:35 82.2 °F /  27.9 °C 54.1 °F /  12.3 °C 30.15 in /  1020.9 hPa ENE 2.0 mph /  3.2 km/h 6.0 mph /  9.7 km/h 38 % 0.00 in /  0 mm 0.0 W/m2 BKN
15:40 82.4 °F /  28 °C 52.8 °F /  11.6 °C 30.15 in /  1020.9 hPa ESE 3.0 mph /  4.8 km/h 8.0 mph /  12.9 km/h 36 % 0.00 in /  0 mm 0.0 W/m2 BKN
15:50 82.4 °F /  28 °C 52.8 °F /  11.6 °C 30.16 in /  1021.2 hPa East 1.0 mph /  1.6 km/h 6.0 mph /  9.7 km/h 36 % 0.00 in /  0 mm 0.0 W/m2 BKN
15:55 82.6 °F /  28.1 °C 52.9 °F /  11.6 °C 30.15 in /  1020.9 hPa East 1.0 mph /  1.6 km/h 4.0 mph /  6.4 km/h 36 % 0.00 in /  0 mm 0.0 W/m2 BKN
16:00 82.9 °F /  28.3 °C 53.2 °F /  11.8 °C 30.15 in /  1020.9 hPa ESE 1.0 mph /  1.6 km/h 6.0 mph /  9.7 km/h 36 % 0.00 in /  0 mm 0.0 W/m2 BKN
16:10 82.6 °F /  28.1 °C 52.2 °F /  11.2 °C 30.14 in /  1020.5 hPa ESE 3.0 mph /  4.8 km/h 6.0 mph /  9.7 km/h 35 % 0.00 in /  0 mm 0.0 W/m2 BKN
16:15 81.7 °F /  27.6 °C 52.1 °F /  11.2 °C 30.14 in /  1020.5 hPa East 1.0 mph /  1.6 km/h 7.0 mph /  11.3 km/h 36 % 0.00 in /  0 mm 0.0 W/m2 BKN
16:20 80.6 °F /  27 °C 51.9 °F /  11.1 °C 30.14 in /  1020.5 hPa ESE 1.0 mph /  1.6 km/h 7.0 mph /  11.3 km/h 37 % 0.00 in /  0 mm 0.0 W/m2 BKN
16:25 79.7 °F /  26.5 °C 52.6 °F /  11.4 °C 30.14 in /  1020.5 hPa ESE 1.0 mph /  1.6 km/h 6.0 mph /  9.7 km/h 39 % 0.00 in /  0 mm 0.0 W/m2 BKN
16:30 78.5 °F /  25.8 °C 52.8 °F /  11.6 °C 30.13 in /  1020.2 hPa ESE 1.0 mph /  1.6 km/h 4.0 mph /  6.4 km/h 41 % 0.00 in /  0 mm 0.0 W/m2 BKN
16:35 78.3 °F /  25.7 °C 52.6 °F /  11.4 °C 30.14 in /  1020.5 hPa ESE 1.0 mph /  1.6 km/h 4.0 mph /  6.4 km/h 41 % 0.00 in /  0 mm 0.0 W/m2 BKN
16:40 78.1 °F /  25.6 °C 52.5 °F /  11.4 °C 30.14 in /  1020.5 hPa ENE 1.0 mph /  1.6 km/h 4.0 mph /  6.4 km/h 41 % 0.00 in /  0 mm 0.0 W/m2 BKN
16:45 77.6 °F /  25.3 °C 52.0 °F /  11.1 °C 30.14 in /  1020.5 hPa NNW 1.0 mph /  1.6 km/h 7.0 mph /  11.3 km/h 41 % 0.00 in /  0 mm 0.0 W/m2 BKN
16:50 77.5 °F /  25.3 °C 52.0 °F /  11.1 °C 30.14 in /  1020.5 hPa SE 2.0 mph /  3.2 km/h 6.0 mph /  9.7 km/h 41 % 0.00 in /  0 mm 0.0 W/m2 BKN
16:55 76.1 °F /  24.5 °C 52.0 °F /  11.1 °C 30.13 in /  1020.2 hPa East 2.0 mph /  3.2 km/h 6.0 mph /  9.7 km/h 43 % 0.00 in /  0 mm 0.0 W/m2 BKN
17:00 77.5 °F /  25.3 °C 52.6 °F /  11.4 °C 30.14 in /  1020.5 hPa East 3.0 mph /  4.8 km/h 6.0 mph /  9.7 km/h 42 % 0.00 in /  0 mm 0.0 W/m2 BKN
17:05 77.5 °F /  25.3 °C 52.6 °F /  11.4 °C 30.14 in /  1020.5 hPa South 1.0 mph /  1.6 km/h 6.0 mph /  9.7 km/h 42 % 0.00 in /  0 mm 0.0 W/m2 BKN
17:10 79.7 °F /  26.5 °C 51.8 °F /  11 °C 30.14 in /  1020.5 hPa WSW 3.0 mph /  4.8 km/h 5.0 mph /  8 km/h 38 % 0.00 in /  0 mm 0.0 W/m2 BKN
17:15 80.8 °F /  27.1 °C 51.3 °F /  10.7 °C 30.15 in /  1020.9 hPa SE 1.0 mph /  1.6 km/h 6.0 mph /  9.7 km/h 36 % 0.00 in /  0 mm 0.0 W/m2 BKN
17:20 81.1 °F /  27.3 °C 52.4 °F /  11.3 °C 30.14 in /  1020.5 hPa ESE 1.0 mph /  1.6 km/h 6.0 mph /  9.7 km/h 37 % 0.00 in /  0 mm 0.0 W/m2 BKN
17:25 82.0 °F /  27.8 °C 52.4 °F /  11.3 °C 30.15 in /  1020.9 hPa ESE 1.0 mph /  1.6 km/h 4.0 mph /  6.4 km/h 36 % 0.00 in /  0 mm 0.0 W/m2 BKN
17:30 82.4 °F /  28 °C 51.2 °F /  10.7 °C 30.15 in /  1020.9 hPa ENE 1.0 mph /  1.6 km/h 3.0 mph /  4.8 km/h 34 % 0.00 in /  0 mm 0.0 W/m2 BKN
17:35 81.9 °F /  27.7 °C 51.5 °F /  10.8 °C 30.16 in /  1021.2 hPa East 1.0 mph /  1.6 km/h 4.0 mph /  6.4 km/h 35 % 0.00 in /  0 mm 0.0 W/m2 BKN
17:40 81.0 °F /  27.2 °C 51.5 °F /  10.8 °C 30.15 in /  1020.9 hPa East 1.0 mph /  1.6 km/h 3.0 mph /  4.8 km/h 36 % 0.00 in /  0 mm 0.0 W/m2 BKN
17:45 80.1 °F /  26.7 °C 52.2 °F /  11.2 °C 30.15 in /  1020.9 hPa East 1.0 mph /  1.6 km/h 3.0 mph /  4.8 km/h 38 % 0.00 in /  0 mm 0.0 W/m2 BKN
17:50 79.7 °F /  26.5 °C 52.5 °F /  11.4 °C 30.15 in /  1020.9 hPa East 1.0 mph /  1.6 km/h 4.0 mph /  6.4 km/h 39 % 0.00 in /  0 mm 0.0 W/m2 BKN
17:55 79.5 °F /  26.4 °C 52.4 °F /  11.3 °C 30.15 in /  1020.9 hPa ENE 1.0 mph /  1.6 km/h 4.0 mph /  6.4 km/h 39 % 0.00 in /  0 mm 0.0 W/m2 BKN
18:00 80.1 °F /  26.7 °C 53.6 °F /  12 °C 30.15 in /  1020.9 hPa NE 1.0 mph /  1.6 km/h 5.0 mph /  8 km/h 40 % 0.00 in /  0 mm 0.0 W/m2 BKN
18:10 81.0 °F /  27.2 °C 52.2 °F /  11.2 °C 30.14 in /  1020.5 hPa NE 6.0 mph /  9.7 km/h 8.0 mph /  12.9 km/h 37 % 0.00 in /  0 mm 0.0 W/m2 BKN
18:15 80.4 °F /  26.9 °C 52.5 °F /  11.4 °C 30.15 in /  1020.9 hPa NE 1.0 mph /  1.6 km/h 8.0 mph /  12.9 km/h 38 % 0.00 in /  0 mm 0.0 W/m2 BKN
18:20 79.9 °F /  26.6 °C 51.3 °F /  10.7 °C 30.15 in /  1020.9 hPa ENE 2.0 mph /  3.2 km/h 8.0 mph /  12.9 km/h 37 % 0.00 in /  0 mm 0.0 W/m2 BKN
18:25 79.7 °F /  26.5 °C 51.8 °F /  11 °C 30.15 in /  1020.9 hPa ENE 3.0 mph /  4.8 km/h 6.0 mph /  9.7 km/h 38 % 0.00 in /  0 mm 0.0 W/m2 BKN
18:30 79.5 °F /  26.4 °C 51.7 °F /  10.9 °C 30.14 in /  1020.5 hPa NE 3.0 mph /  4.8 km/h 7.0 mph /  11.3 km/h 38 % 0.00 in /  0 mm 0.0 W/m2 BKN
18:35 78.7 °F /  25.9 °C 51.6 °F /  10.9 °C 30.14 in /  1020.5 hPa NE 3.0 mph /  4.8 km/h 7.0 mph /  11.3 km/h 39 % 0.00 in /  0 mm 0.0 W/m2 BKN
18:40 77.9 °F /  25.5 °C 50.9 °F /  10.5 °C 30.13 in /  1020.2 hPa ENE 2.0 mph /  3.2 km/h 6.0 mph /  9.7 km/h 39 % 0.00 in /  0 mm 0.0 W/m2 BKN
18:45 76.2 °F /  24.6 °C 51.4 °F /  10.8 °C 30.13 in /  1020.2 hPa ENE 2.0 mph /  3.2 km/h 7.0 mph /  11.3 km/h 42 % 0.00 in /  0 mm 0.0 W/m2 BKN
18:50 75.9 °F /  24.4 °C 51.8 °F /  11 °C 30.13 in /  1020.2 hPa ENE 1.0 mph /  1.6 km/h 8.0 mph /  12.9 km/h 43 % 0.00 in /  0 mm 0.0 W/m2 OVC
18:55 75.9 °F /  24.4 °C 52.4 °F /  11.3 °C 30.13 in /  1020.2 hPa East 1.0 mph /  1.6 km/h 8.0 mph /  12.9 km/h 44 % 0.00 in /  0 mm 0.0 W/m2 OVC
19:00 75.2 °F /  24 °C 51.8 °F /  11 °C 30.13 in /  1020.2 hPa ENE 2.0 mph /  3.2 km/h 7.0 mph /  11.3 km/h 44 % 0.00 in /  0 mm 0.0 W/m2 OVC
19:05 75.2 °F /  24 °C 52.4 °F /  11.3 °C 30.12 in /  1019.9 hPa NE 1.0 mph /  1.6 km/h 6.0 mph /  9.7 km/h 45 % 0.00 in /  0 mm 0.0 W/m2 OVC
19:10 74.1 °F /  23.4 °C 53.2 °F /  11.8 °C 30.11 in /  1019.5 hPa ENE 1.0 mph /  1.6 km/h 6.0 mph /  9.7 km/h 48 % 0.00 in /  0 mm 0.0 W/m2 OVC
19:15 73.6 °F /  23.1 °C 53.2 °F /  11.8 °C 30.12 in /  1019.9 hPa East 1.0 mph /  1.6 km/h 6.0 mph /  9.7 km/h 49 % 0.00 in /  0 mm 0.0 W/m2 OVC
19:20 73.2 °F /  22.9 °C 54.5 °F /  12.5 °C 30.12 in /  1019.9 hPa Calm   2.0 mph /  3.2 km/h 52 % 0.00 in /  0 mm 0.0 W/m2 OVC
19:25 72.9 °F /  22.7 °C 54.2 °F /  12.3 °C 30.11 in /  1019.5 hPa East 1.0 mph /  1.6 km/h 5.0 mph /  8 km/h 52 % 0.00 in /  0 mm 0.0 W/m2 OVC
19:30 72.3 °F /  22.4 °C 53.7 °F /  12.1 °C 30.11 in /  1019.5 hPa ESE 1.0 mph /  1.6 km/h 6.0 mph /  9.7 km/h 52 % 0.00 in /  0 mm 0.0 W/m2 OVC
19:35 71.6 °F /  22 °C 53.0 °F /  11.7 °C 30.11 in /  1019.5 hPa ENE 1.0 mph /  1.6 km/h 6.0 mph /  9.7 km/h 52 % 0.00 in /  0 mm 0.0 W/m2 OVC
19:40 71.2 °F /  21.8 °C 51.6 °F /  10.9 °C 30.11 in /  1019.5 hPa ESE 1.0 mph /  1.6 km/h 6.0 mph /  9.7 km/h 50 % 0.00 in /  0 mm 0.0 W/m2 OVC
19:45 70.7 °F /  21.5 °C 51.7 °F /  10.9 °C 30.11 in /  1019.5 hPa SE 1.0 mph /  1.6 km/h 5.0 mph /  8 km/h 51 % 0.00 in /  0 mm 0.0 W/m2 OVC
19:50 70.5 °F /  21.4 °C 51.5 °F /  10.8 °C 30.10 in /  1019.2 hPa ENE 1.0 mph /  1.6 km/h 5.0 mph /  8 km/h 51 % 0.00 in /  0 mm 0.0 W/m2 OVC
19:55 70.3 °F /  21.3 °C 51.3 °F /  10.7 °C 30.10 in /  1019.2 hPa Calm   6.0 mph /  9.7 km/h 51 % 0.00 in /  0 mm 0.0 W/m2 OVC
20:00 70.2 °F /  21.2 °C 51.2 °F /  10.7 °C 30.10 in /  1019.2 hPa SE 2.0 mph /  3.2 km/h 6.0 mph /  9.7 km/h 51 % 0.00 in /  0 mm 0.0 W/m2 OVC
20:05 69.6 °F /  20.9 °C 51.2 °F /  10.7 °C 30.09 in /  1018.8 hPa East 2.0 mph /  3.2 km/h 6.0 mph /  9.7 km/h 52 % 0.00 in /  0 mm 0.0 W/m2 OVC
20:10 69.4 °F /  20.8 °C 51.0 °F /  10.6 °C 30.09 in /  1018.8 hPa East 1.0 mph /  1.6 km/h 5.0 mph /  8 km/h 52 % 0.00 in /  0 mm 0.0 W/m2 OVC
20:15 69.1 °F /  20.6 °C 50.7 °F /  10.4 °C 30.09 in /  1018.8 hPa East 1.0 mph /  1.6 km/h 5.0 mph /  8 km/h 52 % 0.00 in /  0 mm 0.0 W/m2 OVC
20:20 68.9 °F /  20.5 °C 50.5 °F /  10.3 °C 30.09 in /  1018.8 hPa SE 1.0 mph /  1.6 km/h 4.0 mph /  6.4 km/h 52 % 0.00 in /  0 mm 0.0 W/m2 OVC
20:25 68.6 °F /  20.3 °C 50.2 °F /  10.1 °C 30.10 in /  1019.2 hPa ESE 2.0 mph /  3.2 km/h 7.0 mph /  11.3 km/h 52 % 0.00 in /  0 mm 0.0 W/m2 OVC
20:30 68.4 °F /  20.2 °C 50.0 °F /  10 °C 30.11 in /  1019.5 hPa ESE 2.0 mph /  3.2 km/h 6.0 mph /  9.7 km/h 52 % 0.00 in /  0 mm 0.0 W/m2 OVC
20:35 68.0 °F /  20 °C 49.7 °F /  9.8 °C 30.11 in /  1019.5 hPa Calm   3.0 mph /  4.8 km/h 52 % 0.00 in /  0 mm 0.0 W/m2 OVC
20:40 67.8 °F /  19.9 °C 50.6 °F /  10.3 °C 30.10 in /  1019.2 hPa ESE 1.0 mph /  1.6 km/h 6.0 mph /  9.7 km/h 54 % 0.00 in /  0 mm 0.0 W/m2 OVC
20:45 67.5 °F /  19.7 °C 50.7 °F /  10.4 °C 30.09 in /  1018.8 hPa Calm   4.0 mph /  6.4 km/h 55 % 0.00 in /  0 mm 0.0 W/m2 OVC
20:50 67.3 °F /  19.6 °C 51.0 °F /  10.6 °C 30.09 in /  1018.8 hPa NE 1.0 mph /  1.6 km/h 3.0 mph /  4.8 km/h 56 % 0.00 in /  0 mm 0.0 W/m2 OVC
20:55 67.3 °F /  19.6 °C 51.5 °F /  10.8 °C 30.10 in /  1019.2 hPa Calm   2.0 mph /  3.2 km/h 57 % 0.00 in /  0 mm 0.0 W/m2 OVC
21:00 67.3 °F /  19.6 °C 52.0 °F /  11.1 °C 30.09 in /  1018.8 hPa ENE 1.0 mph /  1.6 km/h 3.0 mph /  4.8 km/h 58 % 0.00 in /  0 mm 0.0 W/m2 OVC
21:05 67.1 °F /  19.5 °C 51.8 °F /  11 °C 30.09 in /  1018.8 hPa ENE 2.0 mph /  3.2 km/h 3.0 mph /  4.8 km/h 58 % 0.00 in /  0 mm 0.0 W/m2 OVC
21:10 66.9 °F /  19.4 °C 51.7 °F /  10.9 °C 30.09 in /  1018.8 hPa NE 1.0 mph /  1.6 km/h 3.0 mph /  4.8 km/h 58 % 0.00 in /  0 mm 0.0 W/m2 OVC
21:15 66.6 °F /  19.2 °C 51.3 °F /  10.7 °C 30.09 in /  1018.8 hPa Calm   3.0 mph /  4.8 km/h 58 % 0.00 in /  0 mm 0.0 W/m2 OVC
21:20 66.2 °F /  19 °C 51.4 °F /  10.8 °C 30.09 in /  1018.8 hPa ENE 1.0 mph /  1.6 km/h 2.0 mph /  3.2 km/h 59 % 0.00 in /  0 mm 0.0 W/m2 OVC
21:25 65.7 °F /  18.7 °C 51.9 °F /  11.1 °C 30.09 in /  1018.8 hPa Calm   2.0 mph /  3.2 km/h 61 % 0.00 in /  0 mm 0.0 W/m2 OVC
21:30 65.5 °F /  18.6 °C 51.7 °F /  10.9 °C 30.08 in /  1018.5 hPa Calm   2.0 mph /  3.2 km/h 61 % 0.00 in /  0 mm 0.0 W/m2 OVC
21:35 65.1 °F /  18.4 °C 51.8 °F /  11 °C 30.09 in /  1018.8 hPa Calm   1.0 mph /  1.6 km/h 62 % 0.00 in /  0 mm 0.0 W/m2 OVC
21:40 64.8 °F /  18.2 °C 51.4 °F /  10.8 °C 30.09 in /  1018.8 hPa Calm   2.0 mph /  3.2 km/h 62 % 0.00 in /  0 mm 0.0 W/m2 OVC
21:45 64.4 °F /  18 °C 51.1 °F /  10.6 °C 30.09 in /  1018.8 hPa Calm   1.0 mph /  1.6 km/h 62 % 0.00 in /  0 mm 0.0 W/m2 OVC
21:50 64.0 °F /  17.8 °C 51.6 °F /  10.9 °C 30.09 in /  1018.8 hPa Calm   1.0 mph /  1.6 km/h 64 % 0.00 in /  0 mm 0.0 W/m2 BKN
21:55 63.7 °F /  17.6 °C 51.7 °F /  10.9 °C 30.09 in /  1018.8 hPa Calm   2.0 mph /  3.2 km/h 65 % 0.00 in /  0 mm 0.0 W/m2 BKN
22:00 63.5 °F /  17.5 °C 51.5 °F /  10.8 °C 30.09 in /  1018.8 hPa Calm   2.0 mph /  3.2 km/h 65 % 0.00 in /  0 mm 0.0 W/m2 BKN
22:10 63.0 °F /  17.2 °C 51.4 °F /  10.8 °C 30.08 in /  1018.5 hPa Calm   2.0 mph /  3.2 km/h 66 % 0.00 in /  0 mm 0.0 W/m2 BKN
22:15 62.8 °F /  17.1 °C 51.7 °F /  10.9 °C 30.08 in /  1018.5 hPa ENE 2.0 mph /  3.2 km/h 6.0 mph /  9.7 km/h 67 % 0.00 in /  0 mm 0.0 W/m2 BKN
22:20 62.6 °F /  17 °C 51.5 °F /  10.8 °C 30.08 in /  1018.5 hPa ENE 1.0 mph /  1.6 km/h 6.0 mph /  9.7 km/h 67 % 0.00 in /  0 mm 0.0 W/m2 BKN
22:25 62.4 °F /  16.9 °C 51.7 °F /  10.9 °C 30.08 in /  1018.5 hPa East 1.0 mph /  1.6 km/h 4.0 mph /  6.4 km/h 68 % 0.00 in /  0 mm 0.0 W/m2 BKN
22:30 62.1 °F /  16.7 °C 51.4 °F /  10.8 °C 30.08 in /  1018.5 hPa Calm   3.0 mph /  4.8 km/h 68 % 0.00 in /  0 mm 0.0 W/m2 BKN
22:35 62.1 °F /  16.7 °C 51.4 °F /  10.8 °C 30.08 in /  1018.5 hPa ENE 1.0 mph /  1.6 km/h 2.0 mph /  3.2 km/h 68 % 0.00 in /  0 mm 0.0 W/m2 BKN
22:40 61.9 °F /  16.6 °C 51.2 °F /  10.7 °C 30.08 in /  1018.5 hPa Calm   1.0 mph /  1.6 km/h 68 % 0.00 in /  0 mm 0.0 W/m2 BKN
22:45 61.7 °F /  16.5 °C 51.0 °F /  10.6 °C 30.09 in /  1018.8 hPa Calm   1.0 mph /  1.6 km/h 68 % 0.00 in /  0 mm 0.0 W/m2 BKN
22:50 61.5 °F /  16.4 °C 50.9 °F /  10.5 °C 30.09 in /  1018.8 hPa Calm   1.0 mph /  1.6 km/h 68 % 0.00 in /  0 mm 0.0 W/m2 BKN
22:55 61.3 °F /  16.3 °C 50.7 °F /  10.4 °C 30.09 in /  1018.8 hPa Calm   1.0 mph /  1.6 km/h 68 % 0.00 in /  0 mm 0.0 W/m2 BKN
23:00 61.2 °F /  16.2 °C 50.5 °F /  10.3 °C 30.08 in /  1018.5 hPa Calm   1.0 mph /  1.6 km/h 68 % 0.00 in /  0 mm 0.0 W/m2 BKN
23:10 60.8 °F /  16 °C 50.6 °F /  10.3 °C 30.09 in /  1018.8 hPa Calm   1.0 mph /  1.6 km/h 69 % 0.00 in /  0 mm 0.0 W/m2 BKN
23:15 60.8 °F /  16 °C 50.6 °F /  10.3 °C 30.10 in /  1019.2 hPa East 1.0 mph /  1.6 km/h 2.0 mph /  3.2 km/h 69 % 0.00 in /  0 mm 0.0 W/m2 BKN
23:20 59.2 °F /  15.1 °C 49.4 °F /  9.7 °C 30.10 in /  1019.2 hPa Calm   1.0 mph /  1.6 km/h 70 % 0.00 in /  0 mm 0.0 W/m2 BKN
23:25 59.0 °F /  15 °C 49.6 °F /  9.8 °C 30.10 in /  1019.2 hPa Calm   1.0 mph /  1.6 km/h 71 % 0.00 in /  0 mm 0.0 W/m2 BKN
23:30 58.8 °F /  14.9 °C 49.8 °F /  9.9 °C 30.10 in /  1019.2 hPa Calm   1.0 mph /  1.6 km/h 72 % 0.00 in /  0 mm 0.0 W/m2 BKN
23:35 58.6 °F /  14.8 °C 49.6 °F /  9.8 °C 30.10 in /  1019.2 hPa Calm     72 % 0.00 in /  0 mm 0.0 W/m2 BKN
23:40 58.5 °F /  14.7 °C 49.5 °F /  9.7 °C 30.09 in /  1018.8 hPa Calm   2.0 mph /  3.2 km/h 72 % 0.00 in /  0 mm 0.0 W/m2 BKN
23:45 58.3 °F /  14.6 °C 49.7 °F /  9.8 °C 30.09 in /  1018.8 hPa Calm     73 % 0.00 in /  0 mm 0.0 W/m2 BKN
23:50 58.1 °F /  14.5 °C 49.9 °F /  9.9 °C 30.08 in /  1018.5 hPa Calm   1.0 mph /  1.6 km/h 74 % 0.00 in /  0 mm 0.0 W/m2 BKN
23:55 57.6 °F /  14.2 °C 49.3 °F /  9.6 °C 30.09 in /  1018.8 hPa Calm   1.0 mph /  1.6 km/h 74 % 0.00 in /  0 mm 0.0 W/m2 BKN
Garrymore Weather Station, Geashill, Tullamore, Offaly, Ireland
Compliments of Weather Underground - 2.25 mb